Time;durP1;ratioP1;P1;durP2;ratioP2;P2;SDS_P1;SDS_P2;PMS_P1;PMS_P2;Temp;Humidity;BMP_temperature;BMP_pressure;BME280_temperature;BME280_humidity;BME280_pressure;Samples;Min_cycle;Max_cycle;Signal;HPM_P1;HPM_P2
2022/11/29 00:01:41;;;;;;;7.40;3.65;;;;;;;;;;10542894;28;20415;-77
2022/11/29 00:06:41;;;;;;;4.65;3.22;;;;;;;;;;10532307;28;20023;-75
2022/11/29 00:17:01;;;;;;;6.57;3.53;;;;;;;;;;10527910;28;20023;-75
2022/11/29 00:22:02;;;;;;;6.32;3.53;;;;;;;;;;10526519;28;20028;-74
2022/11/29 00:27:02;;;;;;;3.30;2.88;;;;;;;;;;10508717;28;20020;-76
2022/11/29 00:32:03;;;;;;;4.60;3.27;;;;;;;;;;10525424;28;20374;-75
2022/11/29 00:37:03;;;;;;;6.80;3.40;;;;;;;;;;10527461;28;20423;-73
2022/11/29 00:42:03;;;;;;;4.07;2.80;;;;;;;;;;10525290;28;20330;-74
2022/11/29 00:47:05;;;;;;;5.15;3.00;;;;;;;;;;10562923;28;20493;-77
2022/11/29 00:52:07;;;;;;;4.60;2.80;;;;;;;;;;10573230;28;20022;-79
2022/11/29 00:57:07;;;;;;;3.13;2.15;;;;;;;;;;10549489;28;20028;-72
2022/11/29 01:02:07;;;;;;;10.10;7.63;;;;;;;;;;10563133;28;20024;-73
2022/11/29 01:07:08;;;;;;;13.80;10.30;;;;;;;;;;10534009;28;20032;-77
2022/11/29 01:12:08;;;;;;;9.15;5.90;;;;;;;;;;10516452;28;20024;-75
2022/11/29 01:17:09;;;;;;;9.77;5.88;;;;;;;;;;10533612;28;20085;-76
2022/11/29 01:22:09;;;;;;;2.80;1.80;;;;;;;;;;10516773;28;20024;-76
2022/11/29 01:27:09;;;;;;;3.13;2.07;;;;;;;;;;10533306;28;20020;-81
2022/11/29 01:32:11;;;;;;;2.92;1.63;;;;;;;;;;10532708;28;20016;-76
2022/11/29 01:37:11;;;;;;;3.45;1.30;;;;;;;;;;10535162;28;20020;-75
2022/11/29 01:42:12;;;;;;;2.65;1.60;;;;;;;;;;10516475;28;20047;-75
2022/11/29 01:47:12;;;;;;;2.28;1.52;;;;;;;;;;10515322;28;20480;-75
2022/11/29 01:52:20;;;;;;;2.08;1.63;;;;;;;;;;10532865;28;20024;-77
2022/11/29 01:57:22;;;;;;;2.55;1.35;;;;;;;;;;10518060;28;20020;-71
2022/11/29 02:02:33;;;;;;;3.42;1.60;;;;;;;;;;10561769;28;20026;-70
2022/11/29 02:07:33;;;;;;;3.17;1.67;;;;;;;;;;10534110;28;20433;-73
2022/11/29 02:13:03;;;;;;;1.93;1.57;;;;;;;;;;10528629;28;20020;-74
2022/11/29 02:18:08;;;;;;;3.58;1.60;;;;;;;;;;10375077;28;20504;-73
2022/11/29 02:23:18;;;;;;;2.30;1.40;;;;;;;;;;10542255;28;20104;-77
2022/11/29 02:28:36;;;;;;;2.28;1.60;;;;;;;;;;10556800;28;20028;-76
2022/11/29 02:33:56;;;;;;;3.70;1.60;;;;;;;;;;10529168;28;20414;-75
2022/11/29 02:39:02;;;;;;;2.60;1.52;;;;;;;;;;10670831;22;20260;-79
2022/11/29 02:44:11;;;;;;;2.25;1.35;;;;;;;;;;10573043;28;20024;-76
2022/11/29 02:49:21;;;;;;;2.80;1.90;;;;;;;;;;10572765;28;20521;-75
2022/11/29 02:54:40;;;;;;;3.38;1.55;;;;;;;;;;10596361;27;20043;-76
2022/11/29 03:00:15;;;;;;;2.95;1.95;;;;;;;;;;10596213;27;20546;-77
2022/11/29 03:05:34;;;;;;;2.47;1.63;;;;;;;;;;10489218;27;20039;-79
2022/11/29 03:10:53;;;;;;;6.20;2.20;;;;;;;;;;10573670;27;20055;-76
2022/11/29 03:16:07;;;;;;;2.20;1.92;;;;;;;;;;10613952;27;20106;-76
2022/11/29 03:21:11;;;;;;;1.42;1.33;;;;;;;;;;10595956;27;20022;-75
2022/11/29 03:26:18;;;;;;;3.53;1.77;;;;;;;;;;10571803;27;20030;-77
2022/11/29 03:31:36;;;;;;;3.75;2.08;;;;;;;;;;10552684;28;20076;-76
2022/11/29 03:36:43;;;;;;;2.28;1.60;;;;;;;;;;10571182;28;20031;-75
2022/11/29 03:41:50;;;;;;;2.95;2.10;;;;;;;;;;10551681;28;20051;-72
2022/11/29 03:47:06;;;;;;;3.20;2.45;;;;;;;;;;10552239;28;20031;-75
2022/11/29 03:52:25;;;;;;;4.20;2.10;;;;;;;;;;10570322;28;20019;-72
2022/11/29 03:57:37;;;;;;;8.25;2.78;;;;;;;;;;10551769;28;20039;-74
2022/11/29 04:02:41;;;;;;;2.97;1.98;;;;;;;;;;10552047;28;20519;-73
2022/11/29 04:08:01;;;;;;;3.17;2.22;;;;;;;;;;10575079;28;20020;-71
2022/11/29 04:13:08;;;;;;;7.40;2.75;;;;;;;;;;10576391;28;20047;-71
2022/11/29 04:18:27;;;;;;;4.63;2.72;;;;;;;;;;10587373;28;20030;-70
2022/11/29 04:23:28;;;;;;;3.80;2.33;;;;;;;;;;10559392;28;20027;-75
2022/11/29 04:28:37;;;;;;;4.35;2.40;;;;;;;;;;10551270;28;20027;-75
2022/11/29 04:33:56;;;;;;;4.30;2.35;;;;;;;;;;10552057;28;20402;-74
2022/11/29 04:39:22;;;;;;;3.85;2.97;;;;;;;;;;10569823;28;20058;-79
2022/11/29 04:44:41;;;;;;;4.50;2.55;;;;;;;;;;10530145;28;20042;-75
2022/11/29 04:49:59;;;;;;;4.25;2.92;;;;;;;;;;10539204;28;20419;-79
2022/11/29 04:55:18;;;;;;;7.10;3.80;;;;;;;;;;10550184;28;20395;-79
2022/11/29 05:00:20;;;;;;;5.57;3.03;;;;;;;;;;10550482;28;20031;-75
2022/11/29 05:05:43;;;;;;;7.55;2.45;;;;;;;;;;10539020;28;20023;-74
2022/11/29 05:10:59;;;;;;;6.18;2.63;;;;;;;;;;10501595;28;20530;-79
2022/11/29 05:16:14;;;;;;;3.40;2.30;;;;;;;;;;10569004;28;20088;-75
2022/11/29 05:21:22;;;;;;;4.72;2.88;;;;;;;;;;10568840;28;20023;-77
2022/11/29 05:26:28;;;;;;;4.60;2.15;;;;;;;;;;10549753;28;20438;-77
2022/11/29 05:31:48;;;;;;;5.28;3.05;;;;;;;;;;10550152;28;20019;-75
2022/11/29 05:36:49;;;;;;;4.15;2.40;;;;;;;;;;10548779;28;20039;-76
2022/11/29 05:42:07;;;;;;;2.75;1.92;;;;;;;;;;10549203;28;20051;-75
2022/11/29 05:47:09;;;;;;;3.25;2.38;;;;;;;;;;10540595;28;20456;-78
2022/11/29 05:52:27;;;;;;;6.72;2.13;;;;;;;;;;10519680;28;20051;-78
2022/11/29 05:57:27;;;;;;;;;;;;;;;;;;10558762;28;20019;-77
2022/11/29 06:02:54;;;;;;;4.30;3.05;;;;;;;;;;10553767;28;19904;-77
2022/11/29 06:08:12;;;;;;;5.80;3.33;;;;;;;;;;10504547;28;20048;-75
2022/11/29 06:13:32;;;;;;;5.28;2.60;;;;;;;;;;10579475;28;20106;-83
2022/11/29 06:18:45;;;;;;;5.05;2.70;;;;;;;;;;10542575;28;20026;-74
2022/11/29 06:24:07;;;;;;;3.20;2.63;;;;;;;;;;10569952;28;20028;-73
2022/11/29 06:29:24;;;;;;;3.85;2.28;;;;;;;;;;10551714;28;20019;-75
2022/11/29 06:34:24;;;;;;;9.38;2.17;;;;;;;;;;10577587;28;20487;-77
2022/11/29 06:39:25;;;;;;;3.55;2.10;;;;;;;;;;10556532;28;20047;-80
2022/11/29 06:44:27;;;;;;;2.53;2.33;;;;;;;;;;10536932;28;20376;-76
2022/11/29 06:49:31;;;;;;;5.18;2.85;;;;;;;;;;10480405;28;20092;-84
2022/11/29 06:54:34;;;;;;;4.85;2.40;;;;;;;;;;10559487;28;20023;-80
2022/11/29 06:59:58;;;;;;;4.25;2.40;;;;;;;;;;10549813;28;20021;-76
2022/11/29 07:05:21;;;;;;;4.97;2.60;;;;;;;;;;10519010;28;20028;-74
2022/11/29 07:10:22;;;;;;;6.15;2.20;;;;;;;;;;10543027;28;20492;-80
2022/11/29 07:15:23;;;;;;;5.13;3.05;;;;;;;;;;10551944;28;20020;-77
2022/11/29 07:20:36;;;;;;;5.45;3.08;;;;;;;;;;10511924;28;20024;-76
2022/11/29 07:25:56;;;;;;;4.95;2.58;;;;;;;;;;10541681;28;20033;-77
2022/11/29 07:30:59;;;;;;;6.70;3.22;;;;;;;;;;10540368;28;20031;-80
2022/11/29 07:36:07;;;;;;;2.92;1.60;;;;;;;;;;10553629;28;20023;-78
2022/11/29 07:41:22;;;;;;;4.07;2.35;;;;;;;;;;10553980;28;20110;-75
2022/11/29 07:46:24;;;;;;;3.00;1.70;;;;;;;;;;10545449;28;20026;-76
2022/11/29 07:51:24;;;;;;;3.80;2.13;;;;;;;;;;10553641;28;20498;-76
2022/11/29 07:56:24;;;;;;;2.47;1.80;;;;;;;;;;10572115;28;20039;-72
2022/11/29 08:01:26;;;;;;;3.00;1.63;;;;;;;;;;10534329;28;20020;-74
2022/11/29 08:06:26;;;;;;;3.78;1.75;;;;;;;;;;10551780;28;20020;-75
2022/11/29 08:11:27;;;;;;;2.45;1.75;;;;;;;;;;10499366;28;20045;-77
2022/11/29 08:16:27;;;;;;;2.67;1.80;;;;;;;;;;10510262;28;20023;-75
2022/11/29 08:21:28;;;;;;;2.72;1.52;;;;;;;;;;10527436;28;20073;-81
2022/11/29 08:26:28;;;;;;;2.07;1.80;;;;;;;;;;10555285;28;20020;-71
2022/11/29 08:31:29;;;;;;;4.43;2.30;;;;;;;;;;10574780;28;20016;-74
2022/11/29 08:36:31;;;;;;;3.08;1.45;;;;;;;;;;10598255;28;20016;-74
2022/11/29 08:41:32;;;;;;;7.10;1.77;;;;;;;;;;10509620;28;20524;-73
2022/11/29 08:53:40;;;;;;;2.47;1.77;;;;;;;;;;10484569;28;20028;-74
2022/11/29 08:57:13;;;;;;;14.80;2.20;;;;;;;;;;10538795;28;20410;-76
2022/11/29 09:02:14;;;;;;;2.20;1.67;;;;;;;;;;10500254;28;20032;-80
2022/11/29 09:07:15;;;;;;;3.42;1.83;;;;;;;;;;10494714;28;20050;-74
2022/11/29 09:12:15;;;;;;;3.33;1.90;;;;;;;;;;10495319;28;20031;-77
2022/11/29 09:17:16;;;;;;;4.63;2.20;;;;;;;;;;10527091;28;20020;-75
2022/11/29 09:22:17;;;;;;;2.60;1.65;;;;;;;;;;10523351;28;20457;-85
2022/11/29 09:27:18;;;;;;;4.47;1.90;;;;;;;;;;10531062;28;20073;-76
2022/11/29 09:32:18;;;;;;;5.63;2.00;;;;;;;;;;10491029;28;20466;-78
2022/11/29 09:37:24;;;;;;;7.38;2.20;;;;;;;;;;10512153;28;20030;-74
2022/11/29 09:42:40;;;;;;;2.20;1.45;;;;;;;;;;10525659;28;20139;-79
2022/11/29 09:48:01;;;;;;;7.20;2.42;;;;;;;;;;10568641;28;20027;-76
2022/11/29 09:53:20;;;;;;;5.70;3.35;;;;;;;;;;10528334;28;20036;-75
2022/11/29 09:58:25;;;;;;;4.60;2.20;;;;;;;;;;10542838;28;20055;-81
2022/11/29 10:03:35;;;;;;;5.13;2.10;;;;;;;;;;10535291;28;20024;-80
2022/11/29 10:08:37;;;;;;;3.53;2.17;;;;;;;;;;10505743;28;20562;-80
2022/11/29 10:13:43;;;;;;;2.60;1.98;;;;;;;;;;10553796;28;20372;-74
2022/11/29 10:18:48;;;;;;;3.88;2.35;;;;;;;;;;10545072;28;20107;-76
2022/11/29 10:23:53;;;;;;;4.65;2.70;;;;;;;;;;10577770;28;20047;-80
2022/11/29 10:28:56;;;;;;;7.43;3.05;;;;;;;;;;10554918;28;20027;-79
2022/11/29 10:33:58;;;;;;;9.23;3.33;;;;;;;;;;10572113;28;20538;-83
2022/11/29 10:39:09;;;;;;;4.95;2.58;;;;;;;;;;10507346;28;20055;-79
2022/11/29 10:44:12;;;;;;;10.15;3.20;;;;;;;;;;10457883;28;20028;-79
2022/11/29 10:49:13;;;;;;;7.25;4.28;;;;;;;;;;10469650;28;20028;-76
2022/11/29 10:54:26;;;;;;;8.82;4.15;;;;;;;;;;10495349;28;20097;-71
2022/11/29 10:59:46;;;;;;;11.05;4.47;;;;;;;;;;10471033;28;20117;-75
2022/11/29 11:04:48;;;;;;;7.85;4.40;;;;;;;;;;10503950;28;20436;-75
2022/11/29 11:09:51;;;;;;;12.82;4.85;;;;;;;;;;10488631;28;20082;-75
2022/11/29 11:15:11;;;;;;;8.50;4.03;;;;;;;;;;10457962;28;20025;-75
2022/11/29 11:20:22;;;;;;;7.47;3.60;;;;;;;;;;10434180;28;20040;-80
2022/11/29 11:25:30;;;;;;;7.90;4.03;;;;;;;;;;10489575;28;20061;-74
2022/11/29 11:30:31;;;;;;;;;;;;;;;;;;10450685;28;20033;-76
2022/11/29 11:35:31;;;;;;;8.93;5.07;;;;;;;;;;10443795;28;20343;-73
2022/11/29 11:40:33;;;;;;;8.33;4.40;;;;;;;;;;10480425;28;20126;-79
2022/11/29 11:45:35;;;;;;;7.28;4.60;;;;;;;;;;10538466;28;20027;-74
2022/11/29 11:50:50;;;;;;;13.13;5.07;;;;;;;;;;10475091;28;20139;-77
2022/11/29 11:55:53;;;;;;;11.20;4.82;;;;;;;;;;10489797;28;20172;-73
2022/11/29 12:00:53;;;;;;;9.45;4.80;;;;;;;;;;10502646;28;20451;-76
2022/11/29 12:05:56;;;;;;;9.30;3.33;;;;;;;;;;10489903;28;20086;-76
2022/11/29 12:11:02;;;;;;;6.80;3.83;;;;;;;;;;10476001;28;20422;-76
2022/11/29 12:16:07;;;;;;;10.43;4.40;;;;;;;;;;10478102;28;20101;-76
2022/11/29 12:21:15;;;;;;;6.28;3.45;;;;;;;;;;10483932;28;20031;-82
2022/11/29 12:26:22;;;;;;;8.15;3.20;;;;;;;;;;10526177;28;20153;-79
2022/11/29 12:31:34;;;;;;;6.70;4.20;;;;;;;;;;10524803;28;20488;-78
2022/11/29 12:36:41;;;;;;;10.05;4.20;;;;;;;;;;10478237;28;20032;-81
2022/11/29 12:42:00;;;;;;;4.97;3.70;;;;;;;;;;10518685;28;20059;-76
2022/11/29 12:47:11;;;;;;;6.97;3.17;;;;;;;;;;10507455;28;20028;-74
2022/11/29 12:52:31;;;;;;;6.28;3.53;;;;;;;;;;10517390;28;20012;-78
2022/11/29 12:57:37;;;;;;;3.00;2.08;;;;;;;;;;10499091;28;20028;-80
2022/11/29 13:02:56;;;;;;;2.97;1.75;;;;;;;;;;10513829;28;20388;-75
2022/11/29 13:08:07;;;;;;;3.25;1.63;;;;;;;;;;10494171;28;20024;-77
2022/11/29 13:13:26;;;;;;;3.13;1.98;;;;;;;;;;10531932;28;20051;-76
2022/11/29 13:18:32;;;;;;;3.33;2.05;;;;;;;;;;10526147;28;20024;-77
2022/11/29 13:23:43;;;;;;;3.72;1.88;;;;;;;;;;10541559;28;20089;-79
2022/11/29 13:28:45;;;;;;;3.45;2.00;;;;;;;;;;10525993;28;20043;-77
2022/11/29 13:33:50;;;;;;;7.95;2.70;;;;;;;;;;10506277;28;20028;-82
2022/11/29 13:38:57;;;;;;;5.35;3.33;;;;;;;;;;10516262;28;20142;-76
2022/11/29 13:44:16;;;;;;;4.13;2.72;;;;;;;;;;10489734;28;20586;-78
2022/11/29 13:49:42;;;;;;;4.85;2.83;;;;;;;;;;10500181;28;20505;-79
2022/11/29 13:54:42;;;;;;;11.30;3.75;;;;;;;;;;10511289;28;20065;-80
2022/11/29 13:59:47;;;;;;;18.93;3.30;;;;;;;;;;10514041;28;20200;-76
2022/11/29 14:04:47;;;;;;;7.78;3.47;;;;;;;;;;10502096;28;20039;-75
2022/11/29 14:09:50;;;;;;;12.10;2.53;;;;;;;;;;10509855;28;20027;-79
2022/11/29 14:14:50;;;;;;;8.20;2.08;;;;;;;;;;10502080;28;20024;-81
2022/11/29 14:19:51;;;;;;;2.97;1.90;;;;;;;;;;10507191;28;20024;-81
2022/11/29 14:24:58;;;;;;;2.88;1.55;;;;;;;;;;10512169;28;20369;-83
2022/11/29 14:30:01;;;;;;;3.53;2.00;;;;;;;;;;10496374;28;20040;-80
2022/11/29 14:35:19;;;;;;;4.97;1.92;;;;;;;;;;10514696;28;20170;-77
2022/11/29 14:40:31;;;;;;;6.10;2.28;;;;;;;;;;10510253;28;20059;-75
2022/11/29 14:45:32;;;;;;;5.35;3.10;;;;;;;;;;10525504;28;20028;-83
2022/11/29 14:50:37;;;;;;;6.95;2.65;;;;;;;;;;10507417;28;20031;-74
2022/11/29 14:55:38;;;;;;;7.97;3.08;;;;;;;;;;10488903;28;20028;-80
2022/11/29 15:00:48;;;;;;;9.02;3.22;;;;;;;;;;10506559;28;20036;-74
2022/11/29 15:06:19;;;;;;;8.27;3.00;;;;;;;;;;10501406;28;20028;-82
2022/11/29 15:11:36;;;;;;;5.35;2.70;;;;;;;;;;10498668;28;20040;-73
2022/11/29 15:16:52;;;;;;;4.85;2.60;;;;;;;;;;10519137;28;20040;-74
2022/11/29 15:22:07;;;;;;;9.82;3.65;;;;;;;;;;10522422;28;20388;-79
2022/11/29 15:27:11;;;;;;;10.38;3.78;;;;;;;;;;10531389;28;20130;-76
2022/11/29 15:32:12;;;;;;;7.30;2.95;;;;;;;;;;10507825;28;20028;-74
2022/11/29 15:37:31;;;;;;;9.88;3.35;;;;;;;;;;10532813;28;20058;-71
2022/11/29 15:42:39;;;;;;;7.60;4.68;;;;;;;;;;10547614;28;20591;-73
2022/11/29 15:47:40;;;;;;;13.80;5.75;;;;;;;;;;10534095;28;20121;-76
2022/11/29 15:52:41;;;;;;;12.77;6.00;;;;;;;;;;10498776;28;20063;-83
2022/11/29 15:57:43;;;;;;;10.85;5.68;;;;;;;;;;10484591;28;20515;-76
2022/11/29 16:02:49;;;;;;;13.45;5.57;;;;;;;;;;10491558;28;20036;-81
2022/11/29 16:07:52;;;;;;;10.13;5.47;;;;;;;;;;10504086;28;20140;-78
2022/11/29 16:12:53;;;;;;;9.93;5.53;;;;;;;;;;10504455;28;20035;-79
2022/11/29 16:17:54;;;;;;;7.45;4.70;;;;;;;;;;10507009;28;20058;-80
2022/11/29 16:23:12;;;;;;;9.52;4.43;;;;;;;;;;10506521;28;20558;-82
2022/11/29 16:28:13;;;;;;;10.63;5.97;;;;;;;;;;10515613;28;20036;-77
2022/11/29 16:33:20;;;;;;;17.13;10.50;;;;;;;;;;10502267;28;20273;-77
2022/11/29 16:38:21;;;;;;;15.65;10.02;;;;;;;;;;10509817;28;20056;-75
2022/11/29 16:43:41;;;;;;;7.82;5.28;;;;;;;;;;10503848;28;20032;-79
2022/11/29 16:48:42;;;;;;;14.48;3.90;;;;;;;;;;10491462;28;20120;-73
2022/11/29 16:53:46;;;;;;;4.78;2.50;;;;;;;;;;10500452;28;20109;-79
2022/11/29 16:58:50;;;;;;;4.95;2.58;;;;;;;;;;10493442;28;20040;-80
2022/11/29 17:03:51;;;;;;;3.78;1.95;;;;;;;;;;10498854;28;20040;-77
2022/11/29 17:08:52;;;;;;;4.43;3.13;;;;;;;;;;10488066;28;20032;-79
2022/11/29 17:13:52;;;;;;;8.90;3.70;;;;;;;;;;10499236;28;20107;-78
2022/11/29 17:18:52;;;;;;;9.17;3.37;;;;;;;;;;10498512;28;20182;-79
2022/11/29 17:23:53;;;;;;;4.03;2.42;;;;;;;;;;10506805;28;20673;-79
2022/11/29 17:28:53;;;;;;;3.72;1.95;;;;;;;;;;10498081;28;20028;-79
2022/11/29 17:33:54;;;;;;;5.78;2.33;;;;;;;;;;10483926;28;20153;-78
2022/11/29 17:38:55;;;;;;;2.45;1.40;;;;;;;;;;10494799;28;20135;-79
2022/11/29 17:43:55;;;;;;;1.80;1.23;;;;;;;;;;10506841;28;20034;-78
2022/11/29 17:49:00;;;;;;;2.25;1.63;;;;;;;;;;10489210;28;20290;-78
2022/11/29 17:54:03;;;;;;;2.10;1.42;;;;;;;;;;10516474;28;20095;-77
2022/11/29 17:59:03;;;;;;;4.00;1.63;;;;;;;;;;10506204;28;20036;-80
2022/11/29 18:04:04;;;;;;;11.93;1.92;;;;;;;;;;10503524;28;20559;-77
2022/11/29 18:09:06;;;;;;;3.72;1.90;;;;;;;;;;10508801;28;20050;-78
2022/11/29 18:14:11;;;;;;;5.05;2.00;;;;;;;;;;10520159;28;20546;-80
2022/11/29 18:19:14;;;;;;;6.43;2.20;;;;;;;;;;10528100;28;20011;-78
2022/11/29 18:24:15;;;;;;;6.28;2.90;;;;;;;;;;10520206;28;20419;-79
2022/11/29 18:29:15;;;;;;;5.23;2.27;;;;;;;;;;10526160;28;20029;-79
2022/11/29 18:34:15;;;;;;;6.40;1.80;;;;;;;;;;10490976;28;20203;-78
2022/11/29 18:39:17;;;;;;;2.87;1.93;;;;;;;;;;10527917;28;20052;-73
2022/11/29 18:44:19;;;;;;;4.13;3.15;;;;;;;;;;10508282;28;20020;-73
2022/11/29 18:49:21;;;;;;;7.68;3.80;;;;;;;;;;10491090;28;20012;-78
2022/11/29 18:54:21;;;;;;;12.07;5.10;;;;;;;;;;10525387;28;20452;-80
2022/11/29 18:59:21;;;;;;;9.70;5.00;;;;;;;;;;10519792;28;20024;-77
2022/11/29 19:04:22;;;;;;;11.70;5.90;;;;;;;;;;10508345;28;20574;-72
2022/11/29 19:09:22;;;;;;;9.43;4.47;;;;;;;;;;10500666;28;20281;-80
2022/11/29 19:14:23;;;;;;;5.88;3.85;;;;;;;;;;10523791;28;20088;-78
2022/11/29 19:19:25;;;;;;;7.43;3.00;;;;;;;;;;10509115;28;20081;-79
2022/11/29 19:24:25;;;;;;;4.80;2.75;;;;;;;;;;10515018;28;20031;-78
2022/11/29 19:29:26;;;;;;;10.25;3.47;;;;;;;;;;10483112;28;20502;-79
2022/11/29 19:34:26;;;;;;;6.00;3.10;;;;;;;;;;10492619;28;20030;-78
2022/11/29 19:39:27;;;;;;;4.70;3.50;;;;;;;;;;10523989;28;20036;-78
2022/11/29 19:44:27;;;;;;;2.67;1.63;;;;;;;;;;10528770;28;20043;-78
2022/11/29 19:49:27;;;;;;;4.07;2.85;;;;;;;;;;10524379;28;20039;-78
2022/11/29 19:54:28;;;;;;;4.88;2.55;;;;;;;;;;10528049;28;20039;-79
2022/11/29 19:59:28;;;;;;;2.28;1.27;;;;;;;;;;10527398;28;20023;-76
2022/11/29 20:04:28;;;;;;;5.88;1.55;;;;;;;;;;10517064;28;20032;-72
2022/11/29 20:09:28;;;;;;;2.20;2.00;;;;;;;;;;10523599;28;20133;-74
2022/11/29 20:14:29;;;;;;;5.57;2.50;;;;;;;;;;10505657;28;20437;-77
2022/11/29 20:19:29;;;;;;;1.87;1.50;;;;;;;;;;10495311;28;20031;-80
2022/11/29 20:24:29;;;;;;;1.52;1.40;;;;;;;;;;10487972;28;20058;-78
2022/11/29 20:29:31;;;;;;;2.03;1.05;;;;;;;;;;10483715;28;20078;-80
2022/11/29 20:34:32;;;;;;;2.90;1.67;;;;;;;;;;10514754;28;20082;-78
2022/11/29 20:39:32;;;;;;;1.60;1.23;;;;;;;;;;10506750;28;20143;-78
2022/11/29 20:44:36;;;;;;;3.25;1.83;;;;;;;;;;10510995;28;20274;-79
2022/11/29 20:49:39;;;;;;;1.92;1.50;;;;;;;;;;10506171;28;20622;-78
2022/11/29 20:54:39;;;;;;;3.25;2.30;;;;;;;;;;10488783;28;20079;-80
2022/11/29 20:59:40;;;;;;;2.47;1.45;;;;;;;;;;10510603;28;20124;-78
2022/11/29 21:04:40;;;;;;;4.15;1.67;;;;;;;;;;10508702;28;20028;-79
2022/11/29 21:09:40;;;;;;;2.80;1.80;;;;;;;;;;10488391;28;20029;-79
2022/11/29 21:14:41;;;;;;;3.75;1.42;;;;;;;;;;10484095;28;20030;-78
2022/11/29 21:19:42;;;;;;;3.55;1.67;;;;;;;;;;10510003;28;20020;-78
2022/11/29 21:25:07;;;;;;;2.00;1.30;;;;;;;;;;10505301;28;20671;-78
2022/11/29 21:30:21;;;;;;;1.77;1.33;;;;;;;;;;10503592;28;20293;-77
2022/11/29 21:35:21;;;;;;;2.33;1.52;;;;;;;;;;10486148;28;20548;-78
2022/11/29 21:40:23;;;;;;;2.53;1.52;;;;;;;;;;10513685;28;20097;-78
2022/11/29 21:45:23;;;;;;;3.05;1.95;;;;;;;;;;10501411;28;20028;-76
2022/11/29 21:50:23;;;;;;;3.80;1.97;;;;;;;;;;10503193;28;20412;-79
2022/11/29 21:55:24;;;;;;;3.15;1.88;;;;;;;;;;10510444;28;20449;-79
2022/11/29 22:00:24;;;;;;;2.03;1.77;;;;;;;;;;10523430;28;20510;-78
2022/11/29 22:05:25;;;;;;;7.22;2.38;;;;;;;;;;10518851;28;20046;-79
2022/11/29 22:10:26;;;;;;;3.45;1.85;;;;;;;;;;10529903;28;20067;-78
2022/11/29 22:15:27;;;;;;;2.90;1.95;;;;;;;;;;10505460;28;20025;-72
2022/11/29 22:20:28;;;;;;;3.97;2.40;;;;;;;;;;10517421;28;20024;-80
2022/11/29 22:25:28;;;;;;;4.33;2.23;;;;;;;;;;10500238;28;20503;-76
2022/11/29 22:30:28;;;;;;;5.40;2.97;;;;;;;;;;10515596;28;20022;-73
2022/11/29 22:35:29;;;;;;;4.82;3.30;;;;;;;;;;10529254;28;20373;-76
2022/11/29 22:40:30;;;;;;;5.82;3.53;;;;;;;;;;10552017;28;20039;-80
2022/11/29 22:45:31;;;;;;;4.85;2.60;;;;;;;;;;10554045;28;20047;-73
2022/11/29 22:50:31;;;;;;;6.55;3.38;;;;;;;;;;10558519;28;20032;-76
2022/11/29 22:55:31;;;;;;;6.85;3.67;;;;;;;;;;10545900;28;20016;-79
2022/11/29 23:00:33;;;;;;;7.63;4.72;;;;;;;;;;10511126;28;20036;-77
2022/11/29 23:05:33;;;;;;;8.18;4.65;;;;;;;;;;10506900;28;20020;-82
2022/11/29 23:10:34;;;;;;;9.02;4.70;;;;;;;;;;10533239;28;20496;-78
2022/11/29 23:15:40;;;;;;;6.65;4.53;;;;;;;;;;10553477;28;20502;-84
2022/11/29 23:20:41;;;;;;;4.93;3.38;;;;;;;;;;10552491;28;20046;-78
2022/11/29 23:25:48;;;;;;;6.78;3.38;;;;;;;;;;10552789;28;20054;-77
2022/11/29 23:30:49;;;;;;;4.60;2.95;;;;;;;;;;10552217;28;20029;-77
2022/11/29 23:35:49;;;;;;;4.03;2.40;;;;;;;;;;10552002;28;20032;-77
2022/11/29 23:40:50;;;;;;;4.57;2.80;;;;;;;;;;10554137;28;20047;-82
2022/11/29 23:45:51;;;;;;;3.95;2.75;;;;;;;;;;10568667;28;20100;-76
2022/11/29 23:50:51;;;;;;;5.78;3.30;;;;;;;;;;10551455;28;20039;-77
2022/11/29 23:55:58;;;;;;;4.38;2.60;;;;;;;;;;10552711;28;20027;-75
